This is the latest recevied weather packets stored in our database for station/object KF4CQ. If no packets are shown the sender has not sent any weather packets the latest 10 day(s).
| Time | Temp. | Humidity | Pressure | Rain* | Wind** | Luminosity | Snow |
|---|---|---|---|---|---|---|---|
| 1777561132 | 27.78° C | 70% | 1013.2 hPa | 0 mm | - | 598 W/m² | - |
| 1777560827 | 27.78° C | 71% | 1013.3 hPa | 0 mm | - | 490 W/m² | - |
| 1777560223 | 28.33° C | 70% | 1013.4 hPa | 0 mm | - | 570 W/m² | - |
| 1777556578 | 25.56° C | 80% | 1013.2 hPa | 0 mm | - | 345 W/m² | - |
| 1777555974 | 25.56° C | 80% | 1013 hPa | 0 mm | - | 350 W/m² | - |
| 1777554457 | 23.33° C | 88% | 1012.8 hPa | 0 mm | - | 95 W/m² | - |
| 1777552633 | 22.78° C | 91% | 1013.3 hPa | 0 mm | - | 45 W/m² | - |
| 1777552330 | 22.78° C | 92% | 1013.4 hPa | 0 mm | - | 52 W/m² | - |
| 1777552027 | 22.22° C | 92% | 1013.5 hPa | 0 mm | - | 63 W/m² | - |
| 1777551724 | 22.22° C | 92% | 1013.5 hPa | 0 mm | - | 57 W/m² | - |
| 1777550511 | 21.67° C | 93% | 1013.5 hPa | 0 mm | - | 46 W/m² | - |
| 1777547774 | 21.67° C | 94% | 1013.1 hPa | 0 mm | - | 9 W/m² | - |
| 1777547470 | 21.67° C | 94% | 1013.2 hPa | 0 mm | - | 6 W/m² | - |
| 1777546258 | 21.67° C | 94% | 1012.5 hPa | 0 mm | - | 1 W/m² | - |
| 1777545955 | 21.67° C | 94% | 1012.3 hPa | 0 mm | - | 0 W/m² | - |
| 1777545652 | 21.67° C | 94% | 1012.4 hPa | 0 mm | - | 0 W/m² | - |
| 1777545349 | 21.67° C | 94% | 1012.5 hPa | 0 mm | - | 0 W/m² | - |
| 1777545046 | 21.67° C | 94% | 1012.4 hPa | 0 mm | - | 0 W/m² | - |
| 1777544743 | 21.67° C | 95% | 1012.3 hPa | 0 mm | - | 0 W/m² | - |
| 1777544438 | 21.67° C | 95% | 1012.4 hPa | 0 mm | - | 0 W/m² | - |
| 1777544135 | 21.67° C | 95% | 1012.2 hPa | 0 mm | - | 0 W/m² | - |
| 1777543833 | 21.67° C | 95% | 1011.9 hPa | 0 mm | - | 0 W/m² | - |
| 1777543528 | 21.11° C | 95% | 1012.1 hPa | 0 mm | - | 0 W/m² | - |
| 1777543225 | 21.67° C | 95% | 1011.9 hPa | 0 mm | - | 0 W/m² | - |
| 1777542920 | 21.67° C | 94% | 1011.9 hPa | 0 mm | - | 0 W/m² | - |
* Rain latest hour (hover to see other rain measurements)
** Current wind speed in m/s (hover to see current wind gust speed)